Main page
METAR-TAF:

METAR-TAF

Airports :

Zaragoza Airport

Zaragoza, Spain

latitude: 41-40N, longitude: 001-01W, elevation: 263 m

Current weather observation

The report was made 34 minutes ago, at 01:00 UTC
Wind 14 kt from the West/Northwest, varying between West and Northwest
Temperature 22°C
Humidity 73%
Pressure 1018 hPa
Visibility 10 km or more
no clouds below 1500 m and no cumulonimbus

METAR: LEZG 220100Z 29014KT 260V320 CAVOK 22/17 Q1018

Time: 03:34 (01:34 UTC)

Forecast

The report was made 2 hours and 34 minutes ago, at 23:00 UTC
Forecast valid from 22 at 00 UTC to 22 at 24 UTC
Wind 15 kt from the West/Northwest
Visibility 10 km or more
Few clouds at a height of 4000 ft
Probability 40% :
Temporary
from 22 at 11 UTC to 22 at 24 UTC
Wind 18 kt from the West/Northwest with gusts up to 28 kt

TAF: LEZG 212300Z 2200/2224 30015KT 9999 FEW040 TX34/2214Z TN20/2206Z PROB40 TEMPO 2211/2224 30018G28KT

Weather observations and forecasts of more than 4000 airports (METAR and TAF reports).

The available stations are represented by yellow and red dots on the map.

Hover mouse over dot to see the name of the station.

Then click to see weather observations and forecasts.

To change the map : click on the green buttons with a black cross to zoom in, on the green button with a dash to zoom out, or on the green arrows for adjacent maps.


METAR-TAF: